createdAt,value
2016-11-24T00:00:15.019Z,55.83
2016-11-24T00:00:47.331Z,55.74
2016-11-24T00:01:19.641Z,56.12
2016-11-24T00:01:51.961Z,56.51
2016-11-24T00:02:24.255Z,56.12
2016-11-24T00:02:56.568Z,56.12
2016-11-24T00:03:28.906Z,56.51
2016-11-24T00:04:01.275Z,56.12
2016-11-24T00:04:33.603Z,56.12
2016-11-24T00:05:05.906Z,55.74
2016-11-24T00:05:38.201Z,56.02
2016-11-24T00:06:10.534Z,56.12
2016-11-24T00:06:42.857Z,56.22
2016-11-24T00:07:15.173Z,56.02
2016-11-24T00:07:47.499Z,56.12
2016-11-24T00:08:19.811Z,56.12
2016-11-24T00:08:52.120Z,56.12
2016-11-24T00:09:24.436Z,56.12
2016-11-24T00:09:56.760Z,55.74
2016-11-24T00:10:29.088Z,56.12
2016-11-24T00:11:01.406Z,56.12
2016-11-24T00:11:33.729Z,56.41
2016-11-24T00:12:06.041Z,56.12
2016-11-24T00:12:38.356Z,55.93
2016-11-24T00:13:10.711Z,56.22
2016-11-24T00:13:43.022Z,56.02
2016-11-24T00:14:15.367Z,56.02
2016-11-24T00:14:47.690Z,55.93
2016-11-24T00:15:20.001Z,56.22
2016-11-24T00:15:52.320Z,56.12
2016-11-24T00:16:24.638Z,55.93
2016-11-24T00:16:56.936Z,56.12
2016-11-24T00:17:29.251Z,56.22
2016-11-24T00:18:01.574Z,56.41
2016-11-24T00:18:33.911Z,56.12
2016-11-24T00:19:06.238Z,56.12
2016-11-24T00:19:38.590Z,56.22
2016-11-24T00:20:10.909Z,56.12
2016-11-24T00:20:43.225Z,56.12
2016-11-24T00:21:15.546Z,56.12
2016-11-24T00:21:47.863Z,56.12
2016-11-24T00:22:20.176Z,56.22
2016-11-24T00:22:52.481Z,56.22
2016-11-24T00:23:24.789Z,56.22
2016-11-24T00:23:57.136Z,56.22
2016-11-24T00:24:29.437Z,56.22
2016-11-24T00:25:01.759Z,56.22
2016-11-24T00:25:34.083Z,56.12
2016-11-24T00:26:06.408Z,56.22
2016-11-24T00:26:38.722Z,56.22
2016-11-24T00:27:11.035Z,56.12
2016-11-24T00:27:43.357Z,56.02
2016-11-24T00:28:15.688Z,56.22
2016-11-24T00:28:48.020Z,56.22
2016-11-24T00:29:20.344Z,56.12
2016-11-24T00:29:52.672Z,56.02
2016-11-24T00:30:24.989Z,56.51
2016-11-24T00:30:57.302Z,56.22
2016-11-24T00:31:29.631Z,56.12
2016-11-24T00:32:01.975Z,56.6
2016-11-24T00:32:34.315Z,56.12
2016-11-24T00:33:06.624Z,56.51
2016-11-24T00:33:38.943Z,56.12
2016-11-24T00:34:11.265Z,56.12
2016-11-24T00:34:43.590Z,56.12
2016-11-24T00:35:15.915Z,56.22
2016-11-24T00:35:48.240Z,56.12
2016-11-24T00:36:20.547Z,56.7
2016-11-24T00:36:52.845Z,56.12
2016-11-24T00:37:25.179Z,56.02
2016-11-24T00:37:57.512Z,56.12
2016-11-24T00:38:29.827Z,56.22
2016-11-24T00:39:02.157Z,56.31
2016-11-24T00:39:34.465Z,56.02
2016-11-24T00:40:06.778Z,56.6
2016-11-24T00:40:39.080Z,56.6
2016-11-24T00:41:11.415Z,56.12
2016-11-24T00:41:43.842Z,56.6
2016-11-24T00:42:16.175Z,56.02
2016-11-24T00:42:48.493Z,56.12
2016-11-24T00:43:20.801Z,56.6
2016-11-24T00:43:53.128Z,56.22
2016-11-24T00:44:25.450Z,56.12
2016-11-24T00:44:57.774Z,56.22
2016-11-24T00:45:30.096Z,56.12
2016-11-24T00:46:02.408Z,56.22
2016-11-24T00:46:34.726Z,56.22
2016-11-24T00:47:07.058Z,56.12
2016-11-24T00:47:39.381Z,56.7
2016-11-24T00:48:11.692Z,56.12
2016-11-24T00:48:44.013Z,56.22
2016-11-24T00:49:16.323Z,56.22
2016-11-24T00:49:48.655Z,56.7
2016-11-24T00:50:21.005Z,56.31
2016-11-24T00:50:53.339Z,56.22
2016-11-24T00:51:25.657Z,56.12
2016-11-24T00:51:57.995Z,56.22
2016-11-24T00:52:30.311Z,56.7
2016-11-24T00:53:02.655Z,56.31
2016-11-24T00:53:35.030Z,56.6
2016-11-24T00:54:07.324Z,56.22
2016-11-24T00:54:39.639Z,56.6
2016-11-24T00:55:11.965Z,56.41
2016-11-24T00:55:44.288Z,56.7
2016-11-24T00:56:16.605Z,56.22
2016-11-24T00:56:48.916Z,56.22
2016-11-24T00:57:21.209Z,56.41
2016-11-24T00:57:53.519Z,56.41
2016-11-24T00:58:25.847Z,56.41
2016-11-24T00:58:58.175Z,56.22
2016-11-24T00:59:30.538Z,56.7
2016-11-24T01:00:02.858Z,56.6
2016-11-24T01:00:35.229Z,56.31
2016-11-24T01:01:07.540Z,56.41
2016-11-24T01:01:39.871Z,56.22
2016-11-24T01:02:12.186Z,56.22
2016-11-24T01:02:44.508Z,56.31
2016-11-24T01:03:16.818Z,56.31
2016-11-24T01:03:49.173Z,56.31
2016-11-24T01:04:21.484Z,56.31
2016-11-24T01:04:53.792Z,56.31
2016-11-24T01:05:26.119Z,56.22
2016-11-24T01:05:58.437Z,56.31
2016-11-24T01:06:30.769Z,56.02
2016-11-24T01:07:03.094Z,56.22
2016-11-24T01:07:35.395Z,56.31
2016-11-24T01:08:07.709Z,56.31
2016-11-24T01:08:40.030Z,56.31
2016-11-24T01:09:12.360Z,56.31
2016-11-24T01:09:44.673Z,56.41
2016-11-24T01:10:17.034Z,56.22
2016-11-24T01:10:49.355Z,56.31
2016-11-24T01:11:21.664Z,56.31
2016-11-24T01:11:54.006Z,56.22
2016-11-24T01:12:26.317Z,56.31
2016-11-24T01:12:58.640Z,56.31
2016-11-24T01:13:30.949Z,56.22
2016-11-24T01:14:03.265Z,56.41
2016-11-24T01:14:35.597Z,56.41
2016-11-24T01:15:07.923Z,56.31
2016-11-24T01:15:40.248Z,56.31
2016-11-24T01:16:12.579Z,56.51
2016-11-24T01:16:44.902Z,56.12
2016-11-24T01:17:17.227Z,56.22
2016-11-24T01:17:49.554Z,56.31
2016-11-24T01:18:21.873Z,56.22
2016-11-24T01:18:54.173Z,56.31
2016-11-24T01:19:26.514Z,56.31
2016-11-24T01:19:58.821Z,56.22
2016-11-24T01:20:31.144Z,55.93
2016-11-24T01:21:03.465Z,55.93
2016-11-24T01:21:35.774Z,56.41
2016-11-24T01:22:08.099Z,56.31
2016-11-24T01:22:40.424Z,55.93
2016-11-24T01:23:12.731Z,55.83
2016-11-24T01:23:45.060Z,56.12
2016-11-24T01:24:17.370Z,56.41
2016-11-24T01:24:49.688Z,56.02
2016-11-24T01:25:22.041Z,55.93
2016-11-24T01:25:54.356Z,56.31
2016-11-24T01:26:26.680Z,56.41
2016-11-24T01:26:58.989Z,56.02
2016-11-24T01:27:31.302Z,55.74
2016-11-24T01:28:03.629Z,56.41
2016-11-24T01:28:35.955Z,56.31
2016-11-24T01:29:08.259Z,56.31
2016-11-24T01:29:40.579Z,56.31
2016-11-24T01:30:12.927Z,56.31
2016-11-24T01:30:45.239Z,56.31
2016-11-24T01:31:17.570Z,56.31
2016-11-24T01:31:49.924Z,55.74
2016-11-24T01:32:22.253Z,56.31
2016-11-24T01:32:54.566Z,55.83
2016-11-24T01:33:26.891Z,55.83
2016-11-24T01:33:59.208Z,56.31
2016-11-24T01:34:31.553Z,56.41
2016-11-24T01:35:03.861Z,55.83
2016-11-24T01:35:36.176Z,56.02
2016-11-24T01:36:08.515Z,56.12
2016-11-24T01:36:40.824Z,56.02
2016-11-24T01:37:13.150Z,56.12
2016-11-24T01:37:45.451Z,56.22
2016-11-24T01:38:17.801Z,56.12
2016-11-24T01:38:50.116Z,55.64
2016-11-24T01:39:22.449Z,56.12
2016-11-24T01:39:54.764Z,55.93
2016-11-24T01:40:27.074Z,56.12
2016-11-24T01:40:59.390Z,55.64
2016-11-24T01:41:31.716Z,56.02
2016-11-24T01:42:04.017Z,56.12
2016-11-24T01:42:36.324Z,56.22
2016-11-24T01:43:08.661Z,56.12
2016-11-24T01:43:40.983Z,56.12
2016-11-24T01:44:13.305Z,56.31
2016-11-24T01:44:45.650Z,56.12
2016-11-24T01:45:17.984Z,56.12
2016-11-24T01:45:50.311Z,55.83
2016-11-24T01:46:22.625Z,56.12
2016-11-24T01:46:54.961Z,56.02
2016-11-24T01:47:27.279Z,56.31
2016-11-24T01:47:59.606Z,56.12
2016-11-24T01:48:31.912Z,56.12
2016-11-24T01:49:04.216Z,55.64
2016-11-24T01:49:36.534Z,56.02
2016-11-24T01:50:08.855Z,55.83
2016-11-24T01:50:41.177Z,56.12
2016-11-24T01:51:13.498Z,55.93
2016-11-24T01:51:45.796Z,56.02
2016-11-24T01:52:18.123Z,55.74
2016-11-24T01:52:50.428Z,56.31
2016-11-24T01:53:22.738Z,55.93
2016-11-24T01:53:55.087Z,55.74
2016-11-24T01:54:27.412Z,56.02
2016-11-24T01:54:59.748Z,55.64
2016-11-24T01:55:32.052Z,56.31
2016-11-24T01:56:04.368Z,55.83
2016-11-24T01:56:36.686Z,55.64
2016-11-24T01:57:09.004Z,55.64
2016-11-24T01:57:41.323Z,55.93
2016-11-24T01:58:13.652Z,55.93
2016-11-24T01:58:45.970Z,55.64
2016-11-24T01:59:18.287Z,56.02
2016-11-24T01:59:50.599Z,56.12
2016-11-24T02:00:22.942Z,56.02
2016-11-24T02:00:55.271Z,55.93
2016-11-24T02:01:27.594Z,55.45
2016-11-24T02:01:59.915Z,55.45
2016-11-24T02:02:32.232Z,55.83
2016-11-24T02:03:04.544Z,55.83
2016-11-24T02:03:36.872Z,55.83
2016-11-24T02:04:09.172Z,55.83
2016-11-24T02:04:41.495Z,55.64
2016-11-24T02:05:13.817Z,55.83
2016-11-24T02:05:46.127Z,55.74
2016-11-24T02:06:18.434Z,55.45
2016-11-24T02:06:50.734Z,55.45
2016-11-24T02:07:23.048Z,55.64
2016-11-24T02:07:55.394Z,55.83
2016-11-24T02:08:27.720Z,55.74
2016-11-24T02:09:00.022Z,55.64
2016-11-24T02:09:32.332Z,55.64
2016-11-24T02:10:04.656Z,55.83
2016-11-24T02:10:36.985Z,55.74
2016-11-24T02:11:09.301Z,55.93
2016-11-24T02:11:41.631Z,55.74
2016-11-24T02:12:13.963Z,55.64
2016-11-24T02:12:46.287Z,55.45
2016-11-24T02:13:18.589Z,55.55
2016-11-24T02:13:50.901Z,55.64
2016-11-24T02:14:23.204Z,55.83
2016-11-24T02:14:55.552Z,55.74
2016-11-24T02:15:27.874Z,55.83
2016-11-24T02:16:00.196Z,55.74
2016-11-24T02:16:32.524Z,55.55
2016-11-24T02:17:04.880Z,55.74
2016-11-24T02:17:37.195Z,55.45
2016-11-24T02:18:09.549Z,55.45
2016-11-24T02:18:41.873Z,55.64
2016-11-24T02:19:14.187Z,55.45
2016-11-24T02:19:46.501Z,55.74
2016-11-24T02:20:18.824Z,55.55
2016-11-24T02:20:51.130Z,55.55
2016-11-24T02:21:23.446Z,55.64
2016-11-24T02:21:55.777Z,55.74
2016-11-24T02:22:28.094Z,55.45
2016-11-24T02:23:00.415Z,55.55
2016-11-24T02:23:32.750Z,55.74
2016-11-24T02:24:05.062Z,55.64
2016-11-24T02:24:37.394Z,55.74
2016-11-24T02:25:09.703Z,55.74
2016-11-24T02:25:42.013Z,55.74
2016-11-24T02:26:14.329Z,55.45
2016-11-24T02:26:46.642Z,55.64
2016-11-24T02:27:18.952Z,55.45
2016-11-24T02:27:51.257Z,55.93
2016-11-24T02:28:23.597Z,55.45
2016-11-24T02:28:55.908Z,55.55
2016-11-24T02:29:28.227Z,55.45
2016-11-24T02:30:00.535Z,55.55
2016-11-24T02:30:32.850Z,55.83
2016-11-24T02:31:05.152Z,55.74
2016-11-24T02:31:37.465Z,55.83
2016-11-24T02:32:09.781Z,55.55
2016-11-24T02:32:42.096Z,55.64
2016-11-24T02:33:14.420Z,55.64
2016-11-24T02:33:46.731Z,55.83
2016-11-24T02:34:19.056Z,55.35
2016-11-24T02:34:51.401Z,55.93
2016-11-24T02:35:23.731Z,55.83
2016-11-24T02:35:56.055Z,55.55
2016-11-24T02:36:28.387Z,55.55
2016-11-24T02:37:00.710Z,56.02
2016-11-24T02:37:33.050Z,55.83
2016-11-24T02:38:05.375Z,55.64
2016-11-24T02:38:37.678Z,55.45
2016-11-24T02:39:10.028Z,55.55
2016-11-24T02:39:42.355Z,55.74
2016-11-24T02:40:14.681Z,55.55
2016-11-24T02:40:47.942Z,55.55
2016-11-24T02:41:20.236Z,55.55
2016-11-24T02:41:52.556Z,55.45
2016-11-24T02:42:24.882Z,55.74
2016-11-24T02:42:57.209Z,56.12
2016-11-24T02:43:29.529Z,55.45
2016-11-24T02:44:01.846Z,55.45
2016-11-24T02:44:34.183Z,55.83
2016-11-24T02:45:06.487Z,55.45
2016-11-24T02:45:38.817Z,55.55
2016-11-24T02:46:11.138Z,55.45
2016-11-24T02:46:43.440Z,55.64
2016-11-24T02:47:15.768Z,55.45
2016-11-24T02:47:48.098Z,55.45
2016-11-24T02:48:20.408Z,55.93
2016-11-24T02:48:52.704Z,56.12
2016-11-24T02:49:25.016Z,55.45
2016-11-24T02:49:57.341Z,55.64
2016-11-24T02:50:29.656Z,55.74
2016-11-24T02:51:01.981Z,55.64
2016-11-24T02:51:34.298Z,55.64
2016-11-24T02:52:06.627Z,55.64
2016-11-24T02:52:38.948Z,55.45
2016-11-24T02:53:11.251Z,55.64
2016-11-24T02:53:43.555Z,56.02
2016-11-24T02:54:15.863Z,55.55
2016-11-24T02:54:48.178Z,55.55
2016-11-24T02:55:20.499Z,55.55
2016-11-24T02:55:52.816Z,56.41
2016-11-24T02:56:25.154Z,55.74
2016-11-24T02:56:57.467Z,55.74
2016-11-24T02:57:29.800Z,55.55
2016-11-24T02:58:02.117Z,55.83
2016-11-24T02:58:34.447Z,55.55
2016-11-24T02:59:06.751Z,55.74
2016-11-24T02:59:39.068Z,55.64
2016-11-24T03:00:11.393Z,55.64
2016-11-24T03:00:43.706Z,55.74
2016-11-24T03:01:16.025Z,55.64
2016-11-24T03:01:48.354Z,55.55
2016-11-24T03:02:20.675Z,56.31
2016-11-24T03:02:52.988Z,55.45
2016-11-24T03:03:25.310Z,55.64
2016-11-24T03:03:57.623Z,55.64
2016-11-24T03:04:29.949Z,55.55
2016-11-24T03:05:02.320Z,55.64
2016-11-24T03:05:34.635Z,55.64
2016-11-24T03:06:06.975Z,55.64
2016-11-24T03:06:39.312Z,56.31
2016-11-24T03:07:11.626Z,55.74
2016-11-24T03:07:43.936Z,55.74
2016-11-24T03:08:16.255Z,55.55
2016-11-24T03:08:48.586Z,55.64
2016-11-24T03:09:20.966Z,55.83
2016-11-24T03:09:53.292Z,55.64
2016-11-24T03:10:25.622Z,55.64
2016-11-24T03:10:57.923Z,55.64
2016-11-24T03:11:30.265Z,55.93
2016-11-24T03:12:02.561Z,55.64
2016-11-24T03:12:34.867Z,56.22
2016-11-24T03:13:07.237Z,55.55
2016-11-24T03:13:39.547Z,55.74
2016-11-24T03:14:11.843Z,55.83
2016-11-24T03:14:44.156Z,55.64
2016-11-24T03:15:16.481Z,56.02
2016-11-24T03:15:48.796Z,55.64
2016-11-24T03:16:21.107Z,56.31
2016-11-24T03:16:53.431Z,55.74
2016-11-24T03:17:25.739Z,55.64
2016-11-24T03:17:58.045Z,55.74
2016-11-24T03:18:30.361Z,55.74
2016-11-24T03:19:02.734Z,55.55
2016-11-24T03:19:35.059Z,55.55
2016-11-24T03:20:07.405Z,55.74
2016-11-24T03:20:39.735Z,56.02
2016-11-24T03:21:12.066Z,55.64
2016-11-24T03:21:44.379Z,55.55
2016-11-24T03:22:16.704Z,55.93
2016-11-24T03:22:49.034Z,55.55
2016-11-24T03:23:21.348Z,55.74
2016-11-24T03:23:53.674Z,55.93
2016-11-24T03:24:26.004Z,55.93
2016-11-24T03:24:58.337Z,56.02
2016-11-24T03:25:30.669Z,55.74
2016-11-24T03:26:02.998Z,55.74
2016-11-24T03:26:35.359Z,55.64
2016-11-24T03:27:07.680Z,55.64
2016-11-24T03:27:40.008Z,56.12
2016-11-24T03:28:12.337Z,55.55
2016-11-24T03:28:44.651Z,55.64
2016-11-24T03:29:16.967Z,55.93
2016-11-24T03:29:49.285Z,56.02
2016-11-24T03:30:21.641Z,56.02
2016-11-24T03:30:53.945Z,55.55
2016-11-24T03:31:26.262Z,55.64
2016-11-24T03:31:58.586Z,55.74
2016-11-24T03:32:30.913Z,55.55
2016-11-24T03:33:03.238Z,55.55
2016-11-24T03:33:35.563Z,55.26
2016-11-24T03:34:07.897Z,55.35
2016-11-24T03:34:40.216Z,55.55
2016-11-24T03:35:12.520Z,55.74
2016-11-24T03:35:44.848Z,55.35
2016-11-24T03:36:17.157Z,55.35
2016-11-24T03:36:49.473Z,55.64
2016-11-24T03:37:21.822Z,55.45
2016-11-24T03:37:54.119Z,55.45
2016-11-24T03:38:26.449Z,55.55
2016-11-24T03:38:58.787Z,55.45
2016-11-24T03:39:31.101Z,55.93
2016-11-24T03:40:03.420Z,55.93
2016-11-24T03:40:35.743Z,55.55
2016-11-24T03:41:08.047Z,55.45
2016-11-24T03:41:40.362Z,55.64
2016-11-24T03:42:12.693Z,55.93
2016-11-24T03:42:45.010Z,55.83
2016-11-24T03:43:17.337Z,55.45
2016-11-24T03:43:49.664Z,55.83
2016-11-24T03:44:21.999Z,55.64
2016-11-24T03:44:54.312Z,55.45
2016-11-24T03:45:26.630Z,55.55
2016-11-24T03:45:58.962Z,55.45
2016-11-24T03:46:31.288Z,55.93
2016-11-24T03:47:03.615Z,56.02
2016-11-24T03:47:35.931Z,55.64
2016-11-24T03:48:08.271Z,56.02
2016-11-24T03:48:40.582Z,55.64
2016-11-24T03:49:12.889Z,56.02
2016-11-24T03:49:45.212Z,55.55
2016-11-24T03:50:17.547Z,55.64
2016-11-24T03:50:49.840Z,55.93
2016-11-24T03:51:22.180Z,55.16
2016-11-24T03:51:54.488Z,55.83
2016-11-24T03:52:26.769Z,55.64
2016-11-24T03:52:59.101Z,55.64
2016-11-24T03:53:31.461Z,55.55
2016-11-24T03:54:03.788Z,55.55
2016-11-24T03:54:36.137Z,55.55
2016-11-24T03:55:08.507Z,55.64
2016-11-24T03:55:40.833Z,55.55
2016-11-24T03:56:13.164Z,55.83
2016-11-24T03:56:45.472Z,55.55
2016-11-24T03:57:17.790Z,55.93
2016-11-24T03:57:50.120Z,55.35
2016-11-24T03:58:22.468Z,55.45
2016-11-24T03:58:54.771Z,55.45
2016-11-24T03:59:27.084Z,55.93
2016-11-24T03:59:59.396Z,55.16
2016-11-24T04:00:31.718Z,55.83
2016-11-24T04:01:04.087Z,55.55
2016-11-24T04:01:36.395Z,55.74
2016-11-24T04:02:08.701Z,55.26
2016-11-24T04:02:41.009Z,55.74
2016-11-24T04:03:13.310Z,55.93
2016-11-24T04:03:45.624Z,55.55
2016-11-24T04:04:17.958Z,55.07
2016-11-24T04:04:50.268Z,55.16
2016-11-24T04:05:22.586Z,55.26
2016-11-24T04:05:54.914Z,55.26
2016-11-24T04:06:27.262Z,55.83
2016-11-24T04:06:59.556Z,55.74
2016-11-24T04:07:31.902Z,55.74
2016-11-24T04:08:04.219Z,55.16
2016-11-24T04:08:36.547Z,55.07
2016-11-24T04:09:08.901Z,55.07
2016-11-24T04:09:41.219Z,55.07
2016-11-24T04:10:13.544Z,55.64
2016-11-24T04:10:45.873Z,55.64
2016-11-24T04:11:18.198Z,55.07
2016-11-24T04:11:50.527Z,55.07
2016-11-24T04:12:22.844Z,55.07
2016-11-24T04:12:55.158Z,55.07
2016-11-24T04:13:27.482Z,55.07
2016-11-24T04:13:59.791Z,55.93
2016-11-24T04:14:32.103Z,55.35
2016-11-24T04:15:04.414Z,55.26
2016-11-24T04:15:36.746Z,55.64
2016-11-24T04:16:09.069Z,55.07
2016-11-24T04:16:41.381Z,55.35
2016-11-24T04:17:13.769Z,55.35
2016-11-24T04:17:46.070Z,54.97
2016-11-24T04:18:18.386Z,55.35
2016-11-24T04:18:50.699Z,55.16
2016-11-24T04:19:23.036Z,55.64
2016-11-24T04:19:55.356Z,55.16
2016-11-24T04:20:27.674Z,54.97
2016-11-24T04:20:59.989Z,55.26
2016-11-24T04:21:32.317Z,55.35
2016-11-24T04:22:04.651Z,55.55
2016-11-24T04:22:37.010Z,55.26
2016-11-24T04:23:09.333Z,55.16
2016-11-24T04:23:41.648Z,55.16
2016-11-24T04:24:13.949Z,55.35
2016-11-24T04:24:46.289Z,55.26
2016-11-24T04:25:18.601Z,55.45
2016-11-24T04:25:50.912Z,55.16
2016-11-24T04:26:23.213Z,55.45
2016-11-24T04:26:55.545Z,55.35
2016-11-24T04:27:27.859Z,55.16
2016-11-24T04:28:00.176Z,55.16
2016-11-24T04:28:32.505Z,55.45
2016-11-24T04:29:04.820Z,55.16
2016-11-24T04:29:37.125Z,55.45
2016-11-24T04:30:09.441Z,55.45
2016-11-24T04:30:41.773Z,55.16
2016-11-24T04:31:14.090Z,55.26
2016-11-24T04:31:46.409Z,55.16
2016-11-24T04:32:18.785Z,55.45
2016-11-24T04:32:51.093Z,55.16
2016-11-24T04:33:23.409Z,55.26
2016-11-24T04:33:55.689Z,55.26
2016-11-24T04:34:28.033Z,55.55
2016-11-24T04:35:00.386Z,55.35
2016-11-24T04:35:32.711Z,55.64
2016-11-24T04:36:05.042Z,55.26
2016-11-24T04:36:37.367Z,55.64
2016-11-24T04:37:09.684Z,55.45
2016-11-24T04:37:42.004Z,55.26
2016-11-24T04:38:14.337Z,55.64
2016-11-24T04:38:46.654Z,55.35
2016-11-24T04:39:18.977Z,55.26
2016-11-24T04:39:51.300Z,55.26
2016-11-24T04:40:23.632Z,55.64
2016-11-24T04:40:55.953Z,55.64
2016-11-24T04:41:28.268Z,55.64
2016-11-24T04:42:00.569Z,55.64
2016-11-24T04:42:32.885Z,55.26
2016-11-24T04:43:05.185Z,55.35
2016-11-24T04:43:37.499Z,55.45
2016-11-24T04:44:09.801Z,54.97
2016-11-24T04:44:42.128Z,55.55
2016-11-24T04:45:14.447Z,55.45
2016-11-24T04:45:46.784Z,55.26
2016-11-24T04:46:19.103Z,55.26
2016-11-24T04:46:51.416Z,55.26
2016-11-24T04:47:23.742Z,55.16
2016-11-24T04:47:56.046Z,55.26
2016-11-24T04:48:28.375Z,55.45
2016-11-24T04:49:00.743Z,55.16
2016-11-24T04:49:33.050Z,55.45
2016-11-24T04:50:05.371Z,55.26
2016-11-24T04:50:37.689Z,55.16
2016-11-24T04:51:10.005Z,55.45
2016-11-24T04:51:42.339Z,55.35
2016-11-24T04:52:14.657Z,55.26
2016-11-24T04:52:46.974Z,55.26
2016-11-24T04:53:19.291Z,55.26
2016-11-24T04:53:51.618Z,55.74
2016-11-24T04:54:23.993Z,55.64
2016-11-24T04:54:56.315Z,55.07
2016-11-24T04:55:28.641Z,55.26
2016-11-24T04:56:00.969Z,55.35
2016-11-24T04:56:33.294Z,55.45
2016-11-24T04:57:05.615Z,55.26
2016-11-24T04:57:37.935Z,55.26
2016-11-24T04:58:10.239Z,55.16
2016-11-24T04:58:42.560Z,55.16
2016-11-24T04:59:14.880Z,55.45
2016-11-24T04:59:47.201Z,55.83
2016-11-24T05:00:19.536Z,55.26
2016-11-24T05:00:51.849Z,55.16
2016-11-24T05:01:24.189Z,55.74
2016-11-24T05:01:56.509Z,55.26
2016-11-24T05:02:28.819Z,55.26
2016-11-24T05:03:01.137Z,55.35
2016-11-24T05:03:33.456Z,55.74
2016-11-24T05:04:05.792Z,55.26
2016-11-24T05:04:38.109Z,55.26
2016-11-24T05:05:10.421Z,55.16
2016-11-24T05:05:42.771Z,55.74
2016-11-24T05:06:15.089Z,55.26
2016-11-24T05:06:47.389Z,55.16
2016-11-24T05:07:19.689Z,55.16
2016-11-24T05:07:52.050Z,55.74
2016-11-24T05:08:24.380Z,55.55
2016-11-24T05:08:56.677Z,55.26
2016-11-24T05:09:29.020Z,55.26
2016-11-24T05:10:01.375Z,55.26
2016-11-24T05:10:33.702Z,55.26
2016-11-24T05:11:06.011Z,55.16
2016-11-24T05:11:38.317Z,55.26
2016-11-24T05:12:10.640Z,55.16
2016-11-24T05:12:42.977Z,55.26
2016-11-24T05:13:15.306Z,55.26
2016-11-24T05:13:47.635Z,55.26
2016-11-24T05:14:19.946Z,55.26
2016-11-24T05:14:52.269Z,55.45
2016-11-24T05:15:24.611Z,55.26
2016-11-24T05:15:56.933Z,55.16
2016-11-24T05:16:29.258Z,55.64
2016-11-24T05:17:01.596Z,55.16
2016-11-24T05:17:33.927Z,55.26
2016-11-24T05:18:06.245Z,55.55
2016-11-24T05:18:38.598Z,55.74
2016-11-24T05:19:10.908Z,55.35
2016-11-24T05:19:43.227Z,55.35
2016-11-24T05:20:15.553Z,55.35
2016-11-24T05:20:47.888Z,55.26
2016-11-24T05:21:20.206Z,55.45
2016-11-24T05:21:52.534Z,55.35
2016-11-24T05:22:24.866Z,55.26
2016-11-24T05:22:57.192Z,55.16
2016-11-24T05:23:29.509Z,55.26
2016-11-24T05:24:01.823Z,55.55
2016-11-24T05:24:34.136Z,55.64
2016-11-24T05:25:06.455Z,55.16
2016-11-24T05:25:39.512Z,55.74
2016-11-24T05:26:11.837Z,55.64
2016-11-24T05:26:44.138Z,55.45
2016-11-24T05:27:16.469Z,55.26
2016-11-24T05:27:48.791Z,55.16
2016-11-24T05:28:21.116Z,55.35
2016-11-24T05:28:53.434Z,55.35
2016-11-24T05:29:25.755Z,55.35
2016-11-24T05:29:58.103Z,55.35
2016-11-24T05:30:30.422Z,55.74
2016-11-24T05:31:02.736Z,55.16
2016-11-24T05:31:35.061Z,55.26
2016-11-24T05:32:07.418Z,55.16
2016-11-24T05:32:39.748Z,55.35
2016-11-24T05:33:12.066Z,55.26
2016-11-24T05:33:44.391Z,55.35
2016-11-24T05:34:16.701Z,55.16
2016-11-24T05:34:49.018Z,55.26
2016-11-24T05:35:21.312Z,55.35
2016-11-24T05:35:53.636Z,55.64
2016-11-24T05:36:25.952Z,55.26
2016-11-24T05:36:58.263Z,55.35
2016-11-24T05:37:30.577Z,55.38
2016-11-24T05:38:02.905Z,55.55
2016-11-24T05:38:35.215Z,55.38
2016-11-24T05:39:07.532Z,55.26
2016-11-24T05:39:39.861Z,55.55
2016-11-24T05:40:12.192Z,55.35
2016-11-24T05:40:44.518Z,55.07
2016-11-24T05:41:16.837Z,55.26
2016-11-24T05:41:49.142Z,55.45
2016-11-24T05:42:21.471Z,55.26
2016-11-24T05:42:53.769Z,55.35
2016-11-24T05:43:26.097Z,55.16
2016-11-24T05:43:58.432Z,55.1
2016-11-24T05:44:30.732Z,55.07
2016-11-24T05:45:03.043Z,55.07
2016-11-24T05:45:35.366Z,55.35
2016-11-24T05:46:07.678Z,55.29
2016-11-24T05:46:39.996Z,55.35
2016-11-24T05:47:12.322Z,55.45
2016-11-24T05:47:44.644Z,55.07
2016-11-24T05:48:16.999Z,55.26
2016-11-24T05:48:49.298Z,55.1
2016-11-24T05:49:21.607Z,55.35
2016-11-24T05:49:53.924Z,55.07
2016-11-24T05:50:26.249Z,55.07
2016-11-24T05:50:58.584Z,55.26
2016-11-24T05:51:30.895Z,55.45
2016-11-24T05:52:03.227Z,55.45
2016-11-24T05:52:35.559Z,55.45
2016-11-24T05:53:07.880Z,55.45
2016-11-24T05:53:40.193Z,55.29
2016-11-24T05:54:12.507Z,55.1
2016-11-24T05:54:44.821Z,55.19
2016-11-24T05:55:17.159Z,55.26
2016-11-24T05:55:49.472Z,55.1
2016-11-24T05:56:21.767Z,55.07
2016-11-24T05:56:54.086Z,55.26
2016-11-24T05:57:26.384Z,55.26
2016-11-24T05:57:58.694Z,55.07
2016-11-24T05:58:31.040Z,55.16
2016-11-24T05:59:03.375Z,55.26
2016-11-24T05:59:35.701Z,55.26
2016-11-24T06:00:08.017Z,55.38
2016-11-24T06:00:40.346Z,55.47
2016-11-24T06:01:12.675Z,55.29
2016-11-24T06:01:44.981Z,55.16
2016-11-24T06:02:17.293Z,55.07
2016-11-24T06:02:49.627Z,55.26
2016-11-24T06:03:21.948Z,55.26
2016-11-24T06:03:54.271Z,55.19
2016-11-24T06:04:26.584Z,55.16
2016-11-24T06:04:58.884Z,55.57
2016-11-24T06:05:31.207Z,55.45
2016-11-24T06:06:03.554Z,55.29
2016-11-24T06:06:35.880Z,55.07
2016-11-24T06:07:08.183Z,55.26
2016-11-24T06:07:40.508Z,55.26
2016-11-24T06:08:13.561Z,55.45
2016-11-24T06:08:45.881Z,55.16
2016-11-24T06:09:18.179Z,55.35
2016-11-24T06:09:50.489Z,55.26
2016-11-24T06:10:22.801Z,55.45
2016-11-24T06:10:55.120Z,55.45
2016-11-24T06:11:27.433Z,55.16
2016-11-24T06:11:59.749Z,55.45
2016-11-24T06:12:32.047Z,55.38
2016-11-24T06:13:04.357Z,55.35
2016-11-24T06:13:36.667Z,55.45
2016-11-24T06:14:08.976Z,55.35
2016-11-24T06:14:41.301Z,55.35
2016-11-24T06:15:13.616Z,55.45
2016-11-24T06:15:45.918Z,55.45
2016-11-24T06:16:18.239Z,55.47
2016-11-24T06:16:50.546Z,55.45
2016-11-24T06:17:22.867Z,55.45
2016-11-24T06:17:55.175Z,55.35
2016-11-24T06:18:27.499Z,55.45
2016-11-24T06:18:59.790Z,55.29
2016-11-24T06:19:32.115Z,55.45
2016-11-24T06:20:04.454Z,55.35
2016-11-24T06:20:36.770Z,55.35
2016-11-24T06:21:09.087Z,55.35
2016-11-24T06:21:41.394Z,55.26
2016-11-24T06:22:13.741Z,55.45
2016-11-24T06:22:46.065Z,55.19
2016-11-24T06:23:18.390Z,55.55
2016-11-24T06:23:50.735Z,55.07
2016-11-24T06:24:23.056Z,55.45
2016-11-24T06:24:55.381Z,55.35
2016-11-24T06:25:27.699Z,55.45
2016-11-24T06:26:00.009Z,55.07
2016-11-24T06:26:32.343Z,55.26
2016-11-24T06:27:04.679Z,55.07
2016-11-24T06:27:36.983Z,55.35
2016-11-24T06:28:12.069Z,55.26
2016-11-24T06:28:44.391Z,55.26
2016-11-24T06:29:16.711Z,55.45
2016-11-24T06:29:50.017Z,55.35
2016-11-24T06:30:23.034Z,55.45
2016-11-24T06:30:55.334Z,55.55
2016-11-24T06:31:27.715Z,55.45
2016-11-24T06:32:01.064Z,55.26
2016-11-24T06:32:33.432Z,55.35
2016-11-24T06:33:06.526Z,55.35
2016-11-24T06:33:39.957Z,55.35
2016-11-24T06:34:12.293Z,55.45
2016-11-24T06:34:44.693Z,55.29
2016-11-24T06:35:17.158Z,55.26
2016-11-24T06:35:49.487Z,55.47
2016-11-24T06:36:21.809Z,55.26
2016-11-24T06:36:54.120Z,55.55
2016-11-24T06:37:26.468Z,55.35
2016-11-24T06:37:58.808Z,55.57
2016-11-24T06:38:32.060Z,55.45
2016-11-24T06:39:06.576Z,55.26
2016-11-24T06:39:38.886Z,55.26
2016-11-24T06:40:11.223Z,55.26
2016-11-24T06:40:43.571Z,55.26
2016-11-24T06:41:15.890Z,55.35
2016-11-24T06:41:48.211Z,55.26
2016-11-24T06:42:20.536Z,55.64
2016-11-24T06:42:52.831Z,55.26
2016-11-24T06:43:31.069Z,55.26
2016-11-24T06:44:03.391Z,55.16
2016-11-24T06:44:35.727Z,55.26
2016-11-24T06:45:08.039Z,55.29
2016-11-24T06:45:40.367Z,55.64
2016-11-24T06:46:12.920Z,55.45
2016-11-24T06:46:45.290Z,55.35
2016-11-24T06:47:18.675Z,55.45
2016-11-24T06:47:56.312Z,55.26
2016-11-24T06:48:38.189Z,55.19
2016-11-24T06:49:10.522Z,55.45
2016-11-24T06:49:42.852Z,55.47
2016-11-24T06:50:15.207Z,55.26
2016-11-24T06:50:47.515Z,55.26
2016-11-24T06:51:19.837Z,55.19
2016-11-24T06:51:52.149Z,55.35
2016-11-24T06:52:24.475Z,55.16
2016-11-24T06:52:56.795Z,55.29
2016-11-24T06:53:29.225Z,55.16
2016-11-24T06:54:01.566Z,55.16
2016-11-24T06:54:35.066Z,55.26
2016-11-24T06:55:08.904Z,55.19
2016-11-24T06:55:41.213Z,55.16
2016-11-24T06:56:14.069Z,55.16
2016-11-24T06:56:47.005Z,55.16
2016-11-24T06:57:19.334Z,55.35